Time;durP1;ratioP1;P1;durP2;ratioP2;P2;SDS_P1;SDS_P2;PMS_P1;PMS_P2;Temp;Humidity;BMP_temperature;BMP_pressure;BME280_temperature;BME280_humidity;BME280_pressure;Samples;Min_cycle;Max_cycle;Signal;HPM_P1;HPM_P2
2022/01/11 00:01:42;;;;;;;60.70;25.85;;;-0.60;99.90;;;;;;5059429;28;20045;-76
2022/01/11 00:04:13;;;;;;;68.72;25.98;;;-0.50;99.90;;;;;;5025738;28;21171;-75
2022/01/11 00:06:43;;;;;;;52.53;24.85;;;-0.50;99.90;;;;;;5057157;28;20132;-76
2022/01/11 00:09:21;;;;;;;63.70;27.92;;;-0.60;99.90;;;;;;5027766;28;20069;-76
2022/01/11 00:11:47;;;;;;;57.88;27.58;;;-0.60;99.90;;;;;;5027307;28;20103;-76
2022/01/11 00:14:13;;;;;;;47.33;23.52;;;-0.70;99.90;;;;;;5021162;28;20054;-78
2022/01/11 00:16:39;;;;;;;52.90;23.08;;;-0.70;99.90;;;;;;5025071;28;20050;-76
2022/01/11 00:19:08;;;;;;;54.53;25.05;;;-0.60;99.90;;;;;;5053207;28;20033;-76
2022/01/11 00:21:38;;;;;;;54.78;24.95;;;-0.70;99.90;;;;;;5019320;28;20041;-76
2022/01/11 00:26:48;;;;;;;56.60;25.65;;;-0.70;99.90;;;;;;5009829;28;20458;-76
2022/01/11 00:29:14;;;;;;;51.65;26.15;;;-0.70;99.90;;;;;;5008065;28;20065;-76
2022/01/11 00:31:40;;;;;;;50.53;25.20;;;-0.70;99.90;;;;;;5018821;28;20045;-76
2022/01/11 00:34:07;;;;;;;49.97;25.70;;;-0.70;99.90;;;;;;5060117;28;20045;-76
2022/01/11 00:36:42;;;;;;;46.67;24.20;;;-0.70;99.90;;;;;;5026036;28;20045;-76
2022/01/11 00:39:08;;;;;;;45.13;22.88;;;-0.70;99.90;;;;;;5022194;28;20049;-76
2022/01/11 00:41:37;;;;;;;43.72;22.88;;;-0.70;99.90;;;;;;5042592;28;20088;-76
2022/01/11 00:44:04;;;;;;;54.53;25.77;;;-0.70;99.90;;;;;;5023097;28;20053;-77
2022/01/11 00:46:30;;;;;;;49.17;24.88;;;-0.70;99.90;;;;;;5061928;28;20037;-76
2022/01/11 00:48:55;;;;;;;46.88;25.63;;;-0.70;99.90;;;;;;5026636;28;20080;-76
2022/01/11 00:51:21;;;;;;;59.85;26.45;;;-0.70;99.90;;;;;;5020671;28;20501;-76
2022/01/11 00:53:47;;;;;;;49.13;24.30;;;-0.70;99.90;;;;;;5020250;28;20053;-76
2022/01/11 00:56:12;;;;;;;45.05;24.50;;;-0.70;99.90;;;;;;5024685;28;20537;-76
2022/01/11 00:58:38;;;;;;;52.00;25.58;;;-0.70;99.90;;;;;;5027071;28;20080;-76
2022/01/11 01:01:04;;;;;;;59.10;26.85;;;-0.70;99.90;;;;;;5028074;28;20131;-76
2022/01/11 01:03:30;;;;;;;50.47;24.45;;;-0.60;99.90;;;;;;5028380;28;20611;-76
2022/01/11 01:05:56;;;;;;;56.47;25.25;;;-0.60;99.90;;;;;;5018307;28;20084;-76
2022/01/11 01:08:21;;;;;;;47.22;24.88;;;-0.60;99.90;;;;;;4997629;28;20064;-76
2022/01/11 01:10:47;;;;;;;47.20;23.50;;;-0.60;99.90;;;;;;5060660;28;20041;-76
2022/01/11 01:13:19;;;;;;;50.45;23.98;;;-0.60;99.90;;;;;;5008979;28;20092;-76
2022/01/11 01:15:47;;;;;;;58.08;25.45;;;-0.60;99.90;;;;;;5025076;28;20038;-76
2022/01/11 01:18:23;;;;;;;47.40;22.88;;;-0.60;99.90;;;;;;5011729;28;20040;-76
2022/01/11 01:20:53;;;;;;;53.95;23.88;;;-0.60;99.90;;;;;;5008693;28;20141;-76
2022/01/11 01:23:20;;;;;;;55.63;24.73;;;-0.60;99.90;;;;;;5013811;28;20070;-76
2022/01/11 01:25:46;;;;;;;52.53;24.65;;;-0.60;99.90;;;;;;4994423;28;20453;-76
2022/01/11 01:28:13;;;;;;;53.65;26.17;;;-0.60;99.90;;;;;;5007665;28;20406;-76
2022/01/11 01:30:39;;;;;;;55.53;27.08;;;-0.60;99.90;;;;;;5013876;28;20130;-76
2022/01/11 01:33:05;;;;;;;50.97;24.38;;;-0.60;99.90;;;;;;5019790;28;20486;-76
2022/01/11 01:35:38;;;;;;;55.08;25.88;;;-0.60;99.90;;;;;;5024477;28;20092;-76
2022/01/11 01:38:05;;;;;;;54.05;24.80;;;-0.60;99.90;;;;;;5028707;28;20045;-76
2022/01/11 01:40:37;;;;;;;59.47;24.60;;;-0.60;99.90;;;;;;5020681;28;20069;-76
2022/01/11 01:43:04;;;;;;;58.22;25.63;;;-0.60;99.90;;;;;;5012658;28;20099;-75
2022/01/11 01:45:30;;;;;;;61.50;27.52;;;-0.60;99.90;;;;;;5011005;28;20046;-76
2022/01/11 01:47:58;;;;;;;55.00;26.02;;;-0.60;99.90;;;;;;5026977;28;20064;-75
2022/01/11 01:50:27;;;;;;;60.78;28.33;;;-0.60;99.90;;;;;;5029600;28;20049;-75
2022/01/11 01:52:56;;;;;;;52.92;25.50;;;-0.60;99.90;;;;;;5027780;28;20289;-75
2022/01/11 01:55:22;;;;;;;57.25;26.02;;;-0.60;99.90;;;;;;5027871;28;20045;-76
2022/01/11 01:57:49;;;;;;;61.88;27.60;;;-0.60;99.90;;;;;;5028794;28;20056;-76
2022/01/11 02:00:15;;;;;;;59.35;26.83;;;-0.60;99.90;;;;;;5009779;28;20033;-76
2022/01/11 02:02:41;;;;;;;59.75;28.05;;;-0.60;99.90;;;;;;5017761;28;20080;-76
2022/01/11 02:05:08;;;;;;;62.03;27.48;;;-0.60;99.90;;;;;;5005315;28;20701;-76
2022/01/11 02:07:34;;;;;;;55.08;25.58;;;-0.60;99.90;;;;;;5023658;28;20136;-76
2022/01/11 02:10:01;;;;;;;69.00;27.60;;;-0.60;99.90;;;;;;5051020;28;20041;-76
2022/01/11 02:12:27;;;;;;;60.47;26.42;;;-0.60;99.90;;;;;;5022566;28;20414;-76
2022/01/11 02:14:53;;;;;;;72.20;29.90;;;-0.60;99.90;;;;;;5003355;28;20565;-76
2022/01/11 02:17:19;;;;;;;68.45;28.75;;;-0.60;99.90;;;;;;5034491;28;20069;-76
2022/01/11 02:19:45;;;;;;;68.57;27.13;;;-0.50;99.90;;;;;;5020222;28;20509;-76
2022/01/11 02:22:10;;;;;;;66.65;27.40;;;-0.50;99.90;;;;;;5005627;28;20045;-76
2022/01/11 02:24:36;;;;;;;62.15;28.10;;;-0.50;99.90;;;;;;5031906;28;20073;-76
2022/01/11 02:27:02;;;;;;;72.63;29.50;;;-0.50;99.90;;;;;;5019351;28;20049;-76
2022/01/11 02:29:28;;;;;;;63.83;28.40;;;-0.50;99.90;;;;;;5051721;28;20053;-76
2022/01/11 02:31:54;;;;;;;64.50;29.05;;;-0.50;99.90;;;;;;5017096;28;20128;-76
2022/01/11 02:34:20;;;;;;;72.55;28.77;;;-0.40;99.90;;;;;;5026850;28;20442;-76
2022/01/11 02:36:45;;;;;;;75.03;29.63;;;-0.40;99.90;;;;;;5026165;28;20045;-76
2022/01/11 02:39:11;;;;;;;67.65;29.33;;;-0.40;99.90;;;;;;5029251;28;20052;-76
2022/01/11 02:41:54;;;;;;;91.22;31.75;;;-0.40;99.90;;;;;;5044927;28;20552;-76
2022/01/11 02:44:20;;;;;;;67.57;28.60;;;-0.30;99.90;;;;;;5029637;28;20065;-76
2022/01/11 02:46:46;;;;;;;79.28;32.28;;;-0.30;99.90;;;;;;5026336;28;20091;-75
2022/01/11 02:49:11;;;;;;;78.00;30.50;;;-0.30;99.90;;;;;;5010618;28;20041;-76
2022/01/11 02:51:37;;;;;;;74.85;29.98;;;-0.30;99.90;;;;;;5026762;28;20533;-76
2022/01/11 02:54:05;;;;;;;76.60;32.45;;;-0.30;99.90;;;;;;5026731;28;20060;-76
2022/01/11 02:56:31;;;;;;;77.38;27.77;;;-0.20;99.90;;;;;;5027307;28;20768;-75
2022/01/11 02:58:57;;;;;;;63.53;28.60;;;-0.20;99.90;;;;;;5026718;28;20563;-76
2022/01/11 03:01:23;;;;;;;86.35;31.80;;;-0.20;99.90;;;;;;5014817;28;20046;-76
2022/01/11 03:03:48;;;;;;;83.43;32.42;;;-0.20;99.90;;;;;;5010212;28;20045;-76
2022/01/11 03:06:14;;;;;;;81.70;33.75;;;-0.20;99.90;;;;;;5027026;28;20368;-76
2022/01/11 03:08:44;;;;;;;81.88;31.95;;;-0.20;99.90;;;;;;5028880;28;20576;-76
2022/01/11 03:11:11;;;;;;;82.93;30.45;;;-0.20;99.90;;;;;;5011084;28;20089;-75
2022/01/11 03:13:39;;;;;;;85.20;32.05;;;-0.20;99.90;;;;;;5026642;28;20106;-75
2022/01/11 03:16:05;;;;;;;89.47;31.45;;;-0.10;99.90;;;;;;5024716;28;20042;-75
2022/01/11 03:18:31;;;;;;;81.35;32.97;;;-0.20;99.90;;;;;;5011383;28;20395;-75
2022/01/11 03:20:57;;;;;;;76.80;31.63;;;-0.10;99.90;;;;;;4995284;28;20560;-75
2022/01/11 03:23:23;;;;;;;89.65;31.25;;;-0.10;99.90;;;;;;5010224;28;20053;-74
2022/01/11 03:25:52;;;;;;;90.88;32.83;;;-0.10;99.90;;;;;;5010379;28;20140;-75
2022/01/11 03:28:23;;;;;;;89.57;31.73;;;-0.10;99.90;;;;;;5048309;28;20100;-75
2022/01/11 03:30:51;;;;;;;91.70;34.70;;;-0.10;99.90;;;;;;5010490;28;20084;-75
2022/01/11 03:33:17;;;;;;;102.47;37.08;;;-0.10;99.90;;;;;;5009834;28;20130;-75
2022/01/11 03:35:43;;;;;;;90.03;34.72;;;-0.10;99.90;;;;;;5020830;28;20069;-75
2022/01/11 03:38:11;;;;;;;86.95;31.73;;;-0.10;99.90;;;;;;5042760;28;20034;-75
2022/01/11 03:40:38;;;;;;;98.10;35.15;;;-0.10;99.90;;;;;;5010599;28;20075;-75
2022/01/11 03:43:05;;;;;;;91.30;32.20;;;-0.10;99.90;;;;;;5007281;28;20417;-75
2022/01/11 03:45:31;;;;;;;105.65;36.22;;;-0.10;99.90;;;;;;5011563;28;20465;-75
2022/01/11 03:47:59;;;;;;;91.60;34.45;;;-0.10;99.90;;;;;;5025681;28;20041;-75
2022/01/11 03:50:26;;;;;;;105.93;37.42;;;-0.10;99.90;;;;;;5027572;28;20116;-75
2022/01/11 03:53:05;;;;;;;99.38;37.05;;;-0.10;99.90;;;;;;4997287;28;20060;-75
2022/01/11 03:55:57;;;;;;;94.32;35.55;;;-0.10;99.90;;;;;;4996827;28;20095;-74
2022/01/11 03:58:26;;;;;;;;;;;-0.10;99.90;;;;;;5029207;28;20060;-75
2022/01/11 04:00:52;;;;;;;94.90;34.08;;;-0.10;99.90;;;;;;5029210;28;19927;-75
2022/01/11 04:03:18;;;;;;;98.63;36.10;;;-0.10;99.90;;;;;;4996558;28;20049;-75
2022/01/11 04:05:45;;;;;;;103.55;39.72;;;-0.10;99.90;;;;;;5007252;28;20144;-75
2022/01/11 04:08:11;;;;;;;112.22;38.03;;;-0.10;99.90;;;;;;5018578;28;20136;-74
2022/01/11 04:10:38;;;;;;;103.78;38.10;;;-0.10;99.90;;;;;;5013765;28;20057;-75
2022/01/11 04:13:04;;;;;;;103.97;37.13;;;-0.10;99.90;;;;;;5013922;28;20049;-75
2022/01/11 04:15:29;;;;;;;99.82;35.50;;;-0.10;99.90;;;;;;5029393;28;20060;-76
2022/01/11 04:17:55;;;;;;;116.40;39.03;;;-0.10;99.90;;;;;;5037931;28;20135;-76
2022/01/11 04:20:22;;;;;;;106.00;35.38;;;-0.10;99.90;;;;;;5029145;28;20229;-76
2022/01/11 04:22:50;;;;;;;112.13;37.35;;;-0.10;99.90;;;;;;5018748;28;20136;-76
2022/01/11 04:25:17;;;;;;;111.25;37.70;;;-0.10;99.90;;;;;;5033129;28;20095;-76
2022/01/11 04:27:43;;;;;;;97.82;36.22;;;-0.10;99.90;;;;;;5043426;28;20049;-76
2022/01/11 04:30:09;;;;;;;94.78;34.50;;;-0.10;99.90;;;;;;5023950;28;20052;-77
2022/01/11 04:32:36;;;;;;;108.03;34.40;;;0.00;99.90;;;;;;5009190;28;20057;-75
2022/01/11 04:35:02;;;;;;;92.40;34.35;;;0.00;99.90;;;;;;5011284;28;20118;-76
2022/01/11 04:37:28;;;;;;;105.38;37.75;;;0.00;99.90;;;;;;5012805;28;20049;-76
2022/01/11 04:39:54;;;;;;;95.35;33.65;;;0.00;99.90;;;;;;5028524;28;20041;-76
2022/01/11 04:42:19;;;;;;;92.50;33.08;;;0.00;99.90;;;;;;5045160;28;20038;-75
2022/01/11 04:44:45;;;;;;;93.25;35.35;;;0.00;99.90;;;;;;5030238;28;20494;-76
2022/01/11 04:47:11;;;;;;;106.43;33.88;;;0.00;99.90;;;;;;5039157;28;20062;-76
2022/01/11 04:49:36;;;;;;;93.03;33.17;;;0.00;99.90;;;;;;5062180;28;20508;-76
2022/01/11 04:52:02;;;;;;;94.13;33.20;;;0.60;99.90;;;;;;5028238;28;20480;-76
2022/01/11 04:54:28;;;;;;;96.60;33.55;;;0.00;99.90;;;;;;5028455;28;20033;-76
2022/01/11 04:56:54;;;;;;;92.97;32.83;;;0.00;99.90;;;;;;5019425;28;20493;-76
2022/01/11 04:59:21;;;;;;;80.53;29.45;;;0.00;99.90;;;;;;5018042;28;20049;-76
2022/01/11 05:01:48;;;;;;;91.10;33.30;;;0.00;99.90;;;;;;5009793;28;20046;-76
2022/01/11 05:04:14;;;;;;;94.70;34.00;;;0.00;99.90;;;;;;5029327;28;20379;-76
2022/01/11 05:06:40;;;;;;;97.63;32.90;;;0.00;99.90;;;;;;5019216;28;20033;-76
2022/01/11 05:09:05;;;;;;;92.97;31.73;;;0.00;99.90;;;;;;5045059;28;20047;-76
2022/01/11 05:11:31;;;;;;;89.68;33.90;;;0.10;99.90;;;;;;5048423;28;20120;-76
2022/01/11 05:13:57;;;;;;;83.32;29.88;;;0.00;99.90;;;;;;5042480;28;20033;-76
2022/01/11 05:16:22;;;;;;;82.45;30.88;;;0.00;99.90;;;;;;5034112;28;20115;-76
2022/01/11 05:18:49;;;;;;;70.30;28.05;;;0.00;99.90;;;;;;5014587;28;20409;-76
2022/01/11 05:21:15;;;;;;;81.65;29.73;;;0.00;99.90;;;;;;5012717;28;20144;-76
2022/01/11 05:23:41;;;;;;;74.72;29.75;;;0.10;99.90;;;;;;5028620;28;20495;-76
2022/01/11 05:26:07;;;;;;;82.53;31.13;;;0.10;99.90;;;;;;5037169;28;20124;-76
2022/01/11 05:28:34;;;;;;;74.97;28.83;;;0.10;99.90;;;;;;5034597;28;20124;-76
2022/01/11 05:31:01;;;;;;;66.90;27.27;;;0.00;99.90;;;;;;5027909;28;20049;-76
2022/01/11 05:33:27;;;;;;;65.68;28.17;;;0.10;99.90;;;;;;5028448;28;20038;-76
2022/01/11 05:35:53;;;;;;;67.40;26.70;;;0.10;99.90;;;;;;5010917;28;20056;-76
2022/01/11 05:38:19;;;;;;;69.68;26.52;;;0.10;99.90;;;;;;5010357;28;20518;-76
2022/01/11 05:40:44;;;;;;;73.05;27.00;;;0.10;99.90;;;;;;5027288;28;20092;-76
2022/01/11 05:43:12;;;;;;;67.03;26.88;;;0.00;99.90;;;;;;5021503;28;20088;-76
2022/01/11 05:45:38;;;;;;;69.10;28.50;;;0.00;99.90;;;;;;5029428;28;20064;-76
2022/01/11 05:48:04;;;;;;;66.68;27.40;;;0.00;99.90;;;;;;5042431;28;20045;-76
2022/01/11 05:50:31;;;;;;;69.18;25.15;;;0.00;99.90;;;;;;5021859;28;20088;-76
2022/01/11 05:52:57;;;;;;;74.53;28.02;;;0.00;99.90;;;;;;5027929;28;20053;-76
2022/01/11 05:55:22;;;;;;;63.25;26.15;;;0.00;99.90;;;;;;5027345;28;20502;-76
2022/01/11 05:57:48;;;;;;;62.25;26.02;;;0.00;99.90;;;;;;5027842;28;20069;-76
2022/01/11 06:00:18;;;;;;;73.25;26.63;;;0.00;99.90;;;;;;5037504;28;20500;-76
2022/01/11 06:02:46;;;;;;;69.57;27.10;;;0.00;99.90;;;;;;5022423;28;20057;-76
2022/01/11 06:05:13;;;;;;;69.30;25.17;;;0.00;99.90;;;;;;5007321;28;20041;-76
2022/01/11 06:07:39;;;;;;;63.63;27.40;;;0.00;99.90;;;;;;5002209;28;20346;-76
2022/01/11 06:10:06;;;;;;;66.60;27.30;;;0.00;99.90;;;;;;5014821;28;20052;-75
2022/01/11 06:12:32;;;;;;;64.57;26.38;;;0.00;99.90;;;;;;5019119;28;20469;-77
2022/01/11 06:14:57;;;;;;;61.78;25.17;;;0.00;99.90;;;;;;5014867;28;20124;-76
2022/01/11 06:17:23;;;;;;;65.80;24.88;;;0.00;99.90;;;;;;5037525;28;20071;-75
2022/01/11 06:19:49;;;;;;;66.32;25.63;;;0.00;99.90;;;;;;5024583;28;20040;-76
2022/01/11 06:22:14;;;;;;;59.58;25.73;;;0.00;99.90;;;;;;5000954;28;20048;-76
2022/01/11 06:24:40;;;;;;;65.70;26.95;;;-0.10;99.90;;;;;;5035033;28;20103;-76
2022/01/11 06:27:05;;;;;;;62.88;24.85;;;-0.10;99.90;;;;;;5021016;28;20049;-76
2022/01/11 06:29:31;;;;;;;53.28;24.73;;;-0.10;99.90;;;;;;5018462;28;20946;-76
2022/01/11 06:31:57;;;;;;;68.03;27.20;;;-0.10;99.90;;;;;;5004144;28;21044;-76
2022/01/11 06:34:22;;;;;;;60.63;26.17;;;-0.10;99.90;;;;;;5022419;28;20192;-76
2022/01/11 06:36:48;;;;;;;53.97;23.73;;;-0.10;99.90;;;;;;5017598;28;20130;-76
2022/01/11 06:39:14;;;;;;;63.80;26.30;;;-0.10;99.90;;;;;;5018350;28;20111;-75
2022/01/11 06:41:39;;;;;;;57.97;25.25;;;-0.10;99.90;;;;;;5024746;28;20048;-76
2022/01/11 06:44:06;;;;;;;58.97;25.15;;;-0.10;99.90;;;;;;5026706;28;20045;-76
2022/01/11 06:46:32;;;;;;;54.05;24.05;;;-0.10;99.90;;;;;;5006512;28;20049;-78
2022/01/11 06:49:00;;;;;;;59.63;24.58;;;-0.20;99.90;;;;;;5023254;28;20053;-76
2022/01/11 06:51:26;;;;;;;55.75;23.67;;;-0.20;99.90;;;;;;5048763;28;20041;-76
2022/01/11 06:53:51;;;;;;;60.58;24.73;;;-0.10;99.90;;;;;;5021238;28;20501;-76
2022/01/11 06:56:17;;;;;;;48.33;22.05;;;-0.10;99.90;;;;;;5026010;28;20096;-76
2022/01/11 06:58:44;;;;;;;55.65;22.75;;;-0.10;99.90;;;;;;5022452;28;20095;-76
2022/01/11 07:01:10;;;;;;;58.45;23.83;;;-0.10;99.90;;;;;;5014213;28;20516;-76
2022/01/11 07:03:36;;;;;;;54.33;22.20;;;-0.10;99.90;;;;;;5021663;28;20458;-75
2022/01/11 07:06:03;;;;;;;57.20;22.92;;;-0.10;99.90;;;;;;5026474;28;20373;-75
2022/01/11 07:08:28;;;;;;;57.00;24.30;;;-0.20;99.90;;;;;;5007519;28;20538;-76
2022/01/11 07:10:54;;;;;;;56.33;23.50;;;-0.20;99.90;;;;;;5023086;28;20052;-76
2022/01/11 07:13:20;;;;;;;53.55;24.60;;;-0.20;99.90;;;;;;5002620;28;20056;-76
2022/01/11 07:15:46;;;;;;;54.55;22.30;;;-0.20;99.90;;;;;;5023845;28;20483;-76
2022/01/11 07:18:12;;;;;;;52.53;23.25;;;-0.20;99.90;;;;;;5009428;28;20042;-76
2022/01/11 07:20:42;;;;;;;51.95;24.33;;;-0.20;99.90;;;;;;5024793;28;20042;-76
2022/01/11 07:23:09;;;;;;;55.78;21.27;;;-0.30;99.90;;;;;;5027390;28;20403;-76
2022/01/11 07:25:35;;;;;;;58.28;22.67;;;-0.20;99.90;;;;;;5027203;28;20141;-76
2022/01/11 07:28:01;;;;;;;47.03;20.80;;;-0.20;99.90;;;;;;5028034;28;20067;-76
2022/01/11 07:30:27;;;;;;;53.40;21.65;;;-0.30;99.90;;;;;;5027601;28;20406;-76
2022/01/11 07:32:53;;;;;;;48.60;22.25;;;-0.30;99.90;;;;;;5010953;28;20045;-76
2022/01/11 07:35:18;;;;;;;50.45;21.08;;;-0.30;99.90;;;;;;5026369;28;20167;-76
2022/01/11 07:37:44;;;;;;;50.63;20.52;;;-0.30;99.90;;;;;;5028185;28;20045;-76
2022/01/11 07:40:12;;;;;;;49.65;21.40;;;-0.30;99.90;;;;;;5026780;28;20125;-76
2022/01/11 07:42:38;;;;;;;49.72;20.52;;;-0.30;99.90;;;;;;5008410;28;20044;-76
2022/01/11 07:45:04;;;;;;;50.92;22.15;;;-0.30;99.90;;;;;;5026546;28;20049;-76
2022/01/11 07:47:29;;;;;;;46.45;20.80;;;-0.30;99.90;;;;;;5026691;28;20049;-76
2022/01/11 07:49:55;;;;;;;43.45;21.25;;;-0.30;99.90;;;;;;5023433;28;20406;-75
2022/01/11 07:52:21;;;;;;;48.08;20.48;;;-0.30;99.90;;;;;;5027080;28;20128;-76
2022/01/11 07:54:47;;;;;;;49.95;22.67;;;-0.30;99.90;;;;;;5005226;28;20034;-76
2022/01/11 07:57:13;;;;;;;45.25;21.08;;;-0.30;99.90;;;;;;5005573;28;20098;-76
2022/01/11 07:59:38;;;;;;;43.55;19.75;;;-0.30;99.90;;;;;;5025781;28;20091;-76
2022/01/11 08:02:04;;;;;;;42.95;20.15;;;-0.30;99.90;;;;;;5024689;28;20044;-76
2022/01/11 08:04:33;;;;;;;46.10;19.27;;;-0.30;99.90;;;;;;5006564;28;20033;-76
2022/01/11 08:06:59;;;;;;;46.40;20.73;;;-0.30;99.90;;;;;;5009103;28;20543;-76
2022/01/11 08:09:25;;;;;;;45.85;19.45;;;-0.30;99.90;;;;;;5024119;28;20107;-75
2022/01/11 08:11:54;;;;;;;50.92;20.75;;;-0.30;99.90;;;;;;5008475;28;20048;-75
2022/01/11 08:14:20;;;;;;;42.03;17.88;;;-0.30;99.90;;;;;;5022231;28;20061;-75
2022/01/11 08:16:46;;;;;;;43.72;19.90;;;-0.20;99.90;;;;;;5006540;28;20061;-76
2022/01/11 08:19:11;;;;;;;44.85;19.70;;;-0.20;99.90;;;;;;5024993;28;20045;-77
2022/01/11 08:21:37;;;;;;;42.80;18.58;;;0.30;99.90;;;;;;5055978;28;20232;-76
2022/01/11 08:24:03;;;;;;;43.22;17.88;;;-0.10;99.90;;;;;;5024721;28;20064;-76
2022/01/11 08:26:29;;;;;;;42.15;20.40;;;-0.10;99.90;;;;;;5025773;28;20044;-76
2022/01/11 08:28:54;;;;;;;38.63;18.67;;;-0.20;99.90;;;;;;5024335;28;20046;-76
2022/01/11 08:31:20;;;;;;;37.45;18.35;;;-0.10;99.90;;;;;;5023976;28;20037;-76
2022/01/11 08:33:46;;;;;;;39.60;17.92;;;-0.20;99.90;;;;;;5024348;28;20052;-75
2022/01/11 08:36:13;;;;;;;37.30;17.92;;;-0.20;99.90;;;;;;5008680;28;20041;-75
2022/01/11 08:38:38;;;;;;;39.45;19.95;;;-0.30;99.90;;;;;;5026780;28;20044;-76
2022/01/11 08:41:04;;;;;;;39.40;17.67;;;-0.30;99.90;;;;;;5025970;28;20689;-76
2022/01/11 08:43:30;;;;;;;36.35;18.27;;;-0.30;99.90;;;;;;5008464;28;20746;-75
2022/01/11 08:45:56;;;;;;;40.50;18.45;;;-0.30;99.90;;;;;;5024660;28;20037;-75
2022/01/11 08:48:22;;;;;;;47.70;19.85;;;-0.40;99.90;;;;;;5008138;28;20040;-75
2022/01/11 08:50:52;;;;;;;40.20;18.92;;;-0.30;99.90;;;;;;5005557;28;20044;-75
2022/01/11 08:53:20;;;;;;;47.22;20.20;;;-0.40;99.90;;;;;;5040462;28;20318;-75
2022/01/11 08:55:45;;;;;;;42.80;18.00;;;-0.40;99.90;;;;;;5021263;28;20095;-74
2022/01/11 08:58:11;;;;;;;40.00;18.20;;;-0.40;99.90;;;;;;5022000;28;20495;-77
2022/01/11 09:00:37;;;;;;;46.00;19.50;;;0.00;99.90;;;;;;5006372;28;20029;-75
2022/01/11 09:03:03;;;;;;;37.53;18.58;;;-0.30;99.90;;;;;;5054314;28;20572;-75
2022/01/11 09:05:28;;;;;;;38.28;17.83;;;-0.40;99.90;;;;;;5007589;28;20044;-74
2022/01/11 09:07:54;;;;;;;39.72;18.38;;;-0.40;99.90;;;;;;5021985;28;20045;-75
2022/01/11 09:10:20;;;;;;;38.30;17.67;;;-0.40;99.90;;;;;;5008398;28;20144;-75
2022/01/11 09:12:46;;;;;;;42.25;19.38;;;-0.40;99.90;;;;;;5023470;28;20425;-74
2022/01/11 09:15:12;;;;;;;35.72;18.02;;;-0.40;99.90;;;;;;5041314;28;20049;-75
2022/01/11 09:17:38;;;;;;;38.30;17.70;;;-0.40;99.90;;;;;;5025044;28;20080;-74
2022/01/11 09:20:06;;;;;;;43.45;20.23;;;-0.40;99.90;;;;;;5027907;28;20084;-74
2022/01/11 09:22:32;;;;;;;39.95;18.00;;;-0.40;99.90;;;;;;5026537;28;20075;-75
2022/01/11 09:24:58;;;;;;;42.90;18.85;;;-0.40;99.90;;;;;;5026050;28;20084;-75
2022/01/11 09:27:23;;;;;;;38.78;18.35;;;-0.40;99.90;;;;;;5024755;28;20116;-75
2022/01/11 09:29:49;;;;;;;42.75;19.77;;;-0.40;99.90;;;;;;5012290;28;20090;-75
2022/01/11 09:32:15;;;;;;;36.42;17.67;;;-0.40;99.90;;;;;;5024059;28;20044;-74
2022/01/11 09:34:41;;;;;;;40.38;17.45;;;-0.40;99.90;;;;;;5027312;28;20485;-75
2022/01/11 09:37:09;;;;;;;42.72;17.95;;;-0.40;99.90;;;;;;5024742;28;20041;-75
2022/01/11 09:39:36;;;;;;;42.17;18.80;;;-0.40;99.90;;;;;;5005209;28;20059;-74
2022/01/11 09:42:05;;;;;;;37.60;18.30;;;-0.40;99.90;;;;;;5005304;28;20052;-75
2022/01/11 09:44:32;;;;;;;42.42;19.25;;;-0.40;99.90;;;;;;5006946;28;20037;-75
2022/01/11 09:46:59;;;;;;;40.03;19.25;;;-0.30;99.90;;;;;;5022541;28;20067;-75
2022/01/11 09:49:25;;;;;;;39.80;19.13;;;-0.30;99.90;;;;;;5020672;28;20098;-75
2022/01/11 09:51:53;;;;;;;43.00;19.73;;;-0.30;99.90;;;;;;5004610;28;20052;-74
2022/01/11 09:54:21;;;;;;;43.83;17.60;;;-0.30;99.90;;;;;;5023587;28;20390;-75
2022/01/11 09:56:48;;;;;;;37.70;18.35;;;-0.30;99.90;;;;;;5023052;28;20048;-75
2022/01/11 09:59:15;;;;;;;37.20;17.45;;;-0.20;99.90;;;;;;5039256;28;20044;-75
2022/01/11 10:01:40;;;;;;;40.55;19.40;;;-0.20;99.90;;;;;;5007937;28;20555;-75
2022/01/11 10:04:13;;;;;;;43.28;19.98;;;-0.10;99.90;;;;;;5006151;28;20072;-75
2022/01/11 10:06:42;;;;;;;40.88;18.77;;;-0.10;99.90;;;;;;5007037;28;20043;-75
2022/01/11 10:09:21;;;;;;;41.13;19.73;;;0.00;99.90;;;;;;5007343;28;20119;-75
2022/01/11 10:11:50;;;;;;;40.92;19.23;;;0.00;99.90;;;;;;5025976;28;20071;-74
2022/01/11 10:14:36;;;;;;;43.53;19.77;;;0.00;99.90;;;;;;5022095;28;20648;-74
2022/01/11 10:17:16;;;;;;;42.80;18.95;;;0.10;99.90;;;;;;5037649;28;20053;-76
2022/01/11 10:19:44;;;;;;;44.78;19.23;;;0.10;99.90;;;;;;5021637;28;20082;-75
2022/01/11 10:22:13;;;;;;;41.35;19.77;;;0.10;99.90;;;;;;5004975;28;20134;-75
2022/01/11 10:24:42;;;;;;;40.65;18.05;;;0.10;99.90;;;;;;5021445;28;20040;-75
2022/01/11 10:27:18;;;;;;;41.13;18.63;;;0.10;99.90;;;;;;5021022;28;20274;-75
2022/01/11 10:29:50;;;;;;;41.42;19.42;;;0.10;99.90;;;;;;5020785;28;20422;-76
2022/01/11 10:32:32;;;;;;;40.08;18.20;;;0.10;99.90;;;;;;5019634;28;20494;-75
2022/01/11 10:35:08;;;;;;;48.70;19.70;;;0.10;99.90;;;;;;5005705;28;20049;-76
2022/01/11 10:37:45;;;;;;;45.92;20.52;;;0.10;99.90;;;;;;5021559;28;20056;-79
2022/01/11 10:40:21;;;;;;;39.05;19.55;;;0.20;99.90;;;;;;5001583;28;20053;-76
2022/01/11 10:42:50;;;;;;;40.33;20.27;;;0.20;99.90;;;;;;5020638;28;20250;-76
2022/01/11 10:45:22;;;;;;;45.55;21.15;;;0.30;99.90;;;;;;5019927;28;20063;-76
2022/01/11 10:47:51;;;;;;;45.85;21.40;;;0.30;99.90;;;;;;5004341;28;20040;-76
2022/01/11 10:50:28;;;;;;;44.28;20.73;;;0.30;99.90;;;;;;5005310;28;20079;-76
2022/01/11 10:52:55;;;;;;;44.45;21.65;;;0.40;99.90;;;;;;5024016;28;20061;-76
2022/01/11 10:55:24;;;;;;;46.00;21.42;;;0.50;99.90;;;;;;5024018;28;20092;-77
2022/01/11 10:57:55;;;;;;;44.30;21.77;;;0.50;99.90;;;;;;5025848;28;20045;-76
2022/01/11 11:00:29;;;;;;;47.63;20.02;;;0.60;99.90;;;;;;5007287;28;20206;-76
2022/01/11 11:03:12;;;;;;;40.55;19.67;;;0.70;99.90;;;;;;5024652;28;20509;-76
2022/01/11 11:05:52;;;;;;;41.60;20.35;;;0.70;99.90;;;;;;5024675;28;20053;-76
2022/01/11 11:08:26;;;;;;;44.42;20.50;;;0.80;99.90;;;;;;5020498;28;20133;-76
2022/01/11 11:10:55;;;;;;;44.50;20.88;;;0.80;99.90;;;;;;5022469;28;20414;-76
2022/01/11 11:13:31;;;;;;;43.42;19.45;;;0.80;99.90;;;;;;5019783;28;20140;-76
2022/01/11 11:16:07;;;;;;;43.90;19.77;;;0.80;99.90;;;;;;5022220;28;20057;-76
2022/01/11 11:18:38;;;;;;;46.28;19.83;;;0.90;99.90;;;;;;5053001;28;20410;-76
2022/01/11 11:21:12;;;;;;;42.17;20.73;;;0.90;99.90;;;;;;5004698;28;20118;-77
2022/01/11 11:23:38;;;;;;;44.33;20.40;;;1.00;99.90;;;;;;4995702;28;20077;-76
2022/01/11 11:26:04;;;;;;;47.03;21.92;;;1.10;99.90;;;;;;5018735;28;20617;-76
2022/01/11 11:28:30;;;;;;;44.60;20.30;;;1.20;99.90;;;;;;5004380;28;20132;-76
2022/01/11 11:30:57;;;;;;;44.80;22.83;;;1.20;99.90;;;;;;5021979;28;20057;-76
2022/01/11 11:33:24;;;;;;;46.10;22.15;;;1.30;99.90;;;;;;5020623;28;20042;-76
2022/01/11 11:35:50;;;;;;;42.85;21.45;;;1.40;99.90;;;;;;5023267;28;20072;-76
2022/01/11 11:38:19;;;;;;;42.03;21.92;;;1.40;99.90;;;;;;5005586;28;20076;-76
2022/01/11 11:40:50;;;;;;;41.90;19.63;;;1.50;99.90;;;;;;5042732;28;20397;-77
2022/01/11 11:43:15;;;;;;;40.83;20.20;;;1.60;99.90;;;;;;5025451;28;20052;-76
2022/01/11 11:45:43;;;;;;;40.67;20.40;;;1.60;99.90;;;;;;5008692;28;20049;-77
2022/01/11 11:48:11;;;;;;;41.65;19.80;;;1.70;99.90;;;;;;5015418;28;20076;-75
2022/01/11 11:51:03;;;;;;;40.08;19.42;;;1.70;99.90;;;;;;5003028;28;20406;-76
2022/01/11 11:53:29;;;;;;;;;;;1.70;99.90;;;;;;5036171;28;20064;-76
2022/01/11 11:56:22;;;;;;;38.28;20.05;;;1.70;99.90;;;;;;5003086;28;19983;-77
2022/01/11 11:58:55;;;;;;;38.05;19.13;;;1.70;99.90;;;;;;5024998;28;20540;-76
2022/01/11 12:01:45;;;;;;;40.45;19.42;;;1.70;99.90;;;;;;5017938;28;20049;-76
2022/01/11 12:04:21;;;;;;;41.00;19.30;;;1.80;99.90;;;;;;5046011;28;20099;-76
2022/01/11 12:06:47;;;;;;;44.10;20.92;;;1.80;99.90;;;;;;5019186;28;20128;-76
2022/01/11 12:09:17;;;;;;;37.55;19.33;;;1.80;99.90;;;;;;5017945;28;20094;-77
2022/01/11 12:11:45;;;;;;;42.38;20.60;;;1.80;99.90;;;;;;5003269;28;20171;-76
2022/01/11 12:14:36;;;;;;;38.25;18.88;;;1.80;99.90;;;;;;5023471;28;20049;-79
2022/01/11 12:17:16;;;;;;;38.97;19.92;;;1.80;99.90;;;;;;5040033;28;20048;-76
2022/01/11 12:19:49;;;;;;;39.15;19.35;;;2.00;99.90;;;;;;5022700;28;20053;-76
2022/01/11 12:22:18;;;;;;;38.25;18.85;;;1.80;99.90;;;;;;5006434;28;20048;-76
2022/01/11 12:24:46;;;;;;;36.33;18.15;;;1.80;99.90;;;;;;5023035;28;20041;-77
2022/01/11 12:27:14;;;;;;;41.47;18.80;;;1.80;99.90;;;;;;5024315;28;20044;-76
2022/01/11 12:30:00;;;;;;;43.45;19.63;;;1.80;99.90;;;;;;5022609;28;20183;-76
2022/01/11 12:32:29;;;;;;;36.95;18.02;;;1.90;99.90;;;;;;5025032;28;20133;-76
2022/01/11 12:35:22;;;;;;;36.97;17.60;;;1.90;99.90;;;;;;5024965;28;20044;-76
2022/01/11 12:37:48;;;;;;;35.63;17.10;;;1.90;99.90;;;;;;5023250;28;20658;-76